createdAt,value
2023-04-01T00:01:04.646Z,77.50
2023-04-01T00:04:08.755Z,77.29
2023-04-01T00:07:12.854Z,77.40
2023-04-01T00:10:16.896Z,77.26
2023-04-01T00:13:21.704Z,77.49
2023-04-01T00:16:25.786Z,77.36
2023-04-01T00:19:29.752Z,77.24
2023-04-01T00:22:35.003Z,77.26
2023-04-01T00:25:38.935Z,77.65
2023-04-01T00:28:42.931Z,77.50
2023-04-01T00:31:47.207Z,77.40
2023-04-01T00:34:52.806Z,77.39
2023-04-01T00:37:57.835Z,77.19
2023-04-01T00:41:01.868Z,77.41
2023-04-01T00:44:19.130Z,77.27
2023-04-01T00:47:26.730Z,77.18
2023-04-01T00:50:32.876Z,77.38
2023-04-01T00:53:42.776Z,77.51
2023-04-01T00:56:51.594Z,77.32
2023-04-01T00:59:56.785Z,77.12
2023-04-01T01:03:01.331Z,77.28
2023-04-01T01:06:40.247Z,77.31
2023-04-01T01:09:55.093Z,77.19
2023-04-01T01:13:04.798Z,77.46
2023-04-01T01:16:26.813Z,77.50
2023-04-01T01:19:58.026Z,77.45
2023-04-01T01:23:34.446Z,77.26
2023-04-01T01:27:00.373Z,77.15
2023-04-01T01:30:22.092Z,77.30
2023-04-01T01:33:38.297Z,77.38
2023-04-01T01:36:46.309Z,77.30
2023-04-01T01:39:57.058Z,77.41
2023-04-01T01:43:06.303Z,77.56
2023-04-01T01:46:18.407Z,77.43
2023-04-01T01:49:24.371Z,77.22
2023-04-01T01:52:29.521Z,77.35
2023-04-01T01:55:40.411Z,77.35
2023-04-01T01:58:48.515Z,77.55
2023-04-01T02:01:57.828Z,77.51
2023-04-01T02:05:04.020Z,77.47
2023-04-01T02:08:17.448Z,77.43
2023-04-01T02:11:28.433Z,77.34
2023-04-01T02:14:42.682Z,77.10
2023-04-01T02:17:48.917Z,77.22
2023-04-01T02:20:53.397Z,77.19
2023-04-01T02:24:01.166Z,76.96
2023-04-01T02:27:05.674Z,77.09
2023-04-01T02:30:10.913Z,76.90
2023-04-01T02:33:15.464Z,76.98
2023-04-01T02:36:19.566Z,76.85
2023-04-01T02:39:23.840Z,77.04
2023-04-01T02:42:27.844Z,76.82
2023-04-01T02:45:32.107Z,76.90
2023-04-01T02:48:36.187Z,76.84
2023-04-01T02:51:40.284Z,76.78
2023-04-01T02:54:44.485Z,76.88
2023-04-01T02:57:48.437Z,76.60
2023-04-01T03:00:52.555Z,76.86
2023-04-01T03:03:56.868Z,76.93
2023-04-01T03:07:01.005Z,76.87
2023-04-01T03:10:06.758Z,76.89
2023-04-01T03:13:11.180Z,77.03
2023-04-01T03:16:15.432Z,77.21
2023-04-01T03:19:19.521Z,77.05
2023-04-01T03:22:23.637Z,77.32
2023-04-01T03:25:29.698Z,77.32
2023-04-01T03:28:33.893Z,77.20
2023-04-01T03:31:37.932Z,77.15
2023-04-01T03:34:42.284Z,77.07
2023-04-01T03:37:46.294Z,76.79
2023-04-01T03:40:50.799Z,77.03
2023-04-01T03:43:55.108Z,77.13
2023-04-01T03:46:59.139Z,77.34
2023-04-01T03:50:03.237Z,77.30
2023-04-01T03:53:07.861Z,77.53
2023-04-01T03:56:12.426Z,77.47
2023-04-01T03:59:16.529Z,77.61
2023-04-01T04:02:20.822Z,77.67
2023-04-01T04:05:26.092Z,77.94
2023-04-01T04:08:30.119Z,78.32
2023-04-01T04:11:34.347Z,78.09
2023-04-01T04:14:38.425Z,78.09
2023-04-01T04:17:42.747Z,78.00
2023-04-01T04:20:52.085Z,78.25
2023-04-01T04:23:56.549Z,78.36
2023-04-01T04:27:01.144Z,78.17
2023-04-01T04:30:07.833Z,78.67
2023-04-01T04:33:12.215Z,78.63
2023-04-01T04:36:16.811Z,78.67
2023-04-01T04:39:20.836Z,78.55
2023-04-01T04:42:25.270Z,78.64
2023-04-01T04:45:33.482Z,78.57
2023-04-01T04:48:38.075Z,78.60
2023-04-01T04:51:42.214Z,78.65
2023-04-01T04:54:46.530Z,78.67
2023-04-01T04:57:50.855Z,78.80
2023-04-01T05:00:55.538Z,78.79
2023-04-01T05:04:04.010Z,78.81
2023-04-01T05:07:08.225Z,78.84
2023-04-01T05:10:12.143Z,78.94
2023-04-01T05:13:16.571Z,78.90
2023-04-01T05:16:22.365Z,78.79
2023-04-01T05:19:26.326Z,78.71
2023-04-01T05:22:30.649Z,78.64
2023-04-01T05:25:35.010Z,78.67
2023-04-01T05:28:39.803Z,78.39
2023-04-01T05:31:43.831Z,78.31
2023-04-01T05:34:47.852Z,78.58
2023-04-01T05:37:51.868Z,78.58
2023-04-01T05:41:00.737Z,78.44
2023-04-01T05:44:05.862Z,78.43
2023-04-01T05:47:18.661Z,77.96
2023-04-01T05:50:23.010Z,77.92
2023-04-01T05:53:27.044Z,78.21
2023-04-01T05:56:30.978Z,77.97
2023-04-01T05:59:36.159Z,77.96
2023-04-01T06:02:40.611Z,77.83
2023-04-01T06:05:45.414Z,78.04
2023-04-01T06:08:50.000Z,77.73
2023-04-01T06:11:56.928Z,77.76
2023-04-01T06:15:03.824Z,77.99
2023-04-01T06:18:32.309Z,77.90
2023-04-01T06:21:42.563Z,77.67
2023-04-01T06:25:18.826Z,77.66
2023-04-01T06:29:02.178Z,77.72
2023-04-01T06:32:21.663Z,77.58
2023-04-01T06:35:44.789Z,77.53
2023-04-01T06:39:09.596Z,77.23
2023-04-01T06:42:55.783Z,76.48
2023-04-01T06:46:34.245Z,76.24
2023-04-01T06:50:10.017Z,75.93
2023-04-01T06:53:55.896Z,75.50
2023-04-01T06:57:43.969Z,75.89
2023-04-01T07:00:52.089Z,75.30
2023-04-01T07:04:14.129Z,75.22
2023-04-01T07:07:37.785Z,75.03
2023-04-01T07:11:02.985Z,74.81
2023-04-01T07:14:31.286Z,74.65
2023-04-01T07:17:40.247Z,74.77
2023-04-01T07:20:45.640Z,73.86
2023-04-01T07:23:53.056Z,74.52
2023-04-01T07:27:19.837Z,74.28
2023-04-01T07:30:25.762Z,74.69
2023-04-01T07:33:40.425Z,74.06
2023-04-01T07:36:58.595Z,73.90
2023-04-01T07:40:11.696Z,73.12
2023-04-01T07:43:42.561Z,72.60
2023-04-01T07:47:41.042Z,72.06
2023-04-01T07:51:03.486Z,72.09
2023-04-01T07:54:20.004Z,72.22
2023-04-01T07:57:44.697Z,72.26
2023-04-01T08:01:14.732Z,72.11
2023-04-01T08:04:47.554Z,72.32
2023-04-01T08:08:21.224Z,71.82
2023-04-01T08:11:51.241Z,72.21
2023-04-01T08:15:22.956Z,72.72
2023-04-01T08:19:05.730Z,72.20
2023-04-01T08:22:21.048Z,72.09
2023-04-01T08:25:29.251Z,71.77
2023-04-01T08:28:40.924Z,71.63
2023-04-01T08:31:55.741Z,71.70
2023-04-01T08:35:14.463Z,71.27
2023-04-01T08:38:26.171Z,70.89
2023-04-01T08:41:52.620Z,70.78
2023-04-01T08:45:39.074Z,70.72
2023-04-01T08:48:58.570Z,70.05
2023-04-01T08:52:34.660Z,69.77
2023-04-01T08:55:57.154Z,70.23
2023-04-01T08:59:04.319Z,70.23
2023-04-01T09:02:32.987Z,70.00
2023-04-01T09:06:14.181Z,69.52
2023-04-01T09:09:37.959Z,68.94
2023-04-01T09:12:57.332Z,69.02
2023-04-01T09:16:18.503Z,68.58
2023-04-01T09:19:29.640Z,68.21
2023-04-01T09:22:48.219Z,68.49
2023-04-01T09:26:07.357Z,68.97
2023-04-01T09:29:17.628Z,68.75
2023-04-01T09:33:09.878Z,68.95
2023-04-01T09:36:28.441Z,68.75
2023-04-01T09:39:38.469Z,69.00
2023-04-01T09:43:02.283Z,68.61
2023-04-01T09:46:09.954Z,68.96
2023-04-01T09:49:51.783Z,68.85
2023-04-01T09:53:20.889Z,69.57
2023-04-01T09:56:48.604Z,69.47
2023-04-01T10:00:01.902Z,70.03
2023-04-01T10:03:42.566Z,70.09
2023-04-01T10:07:12.056Z,70.67
2023-04-01T10:10:47.424Z,71.06
2023-04-01T10:14:19.912Z,71.96
2023-04-01T10:17:42.835Z,72.15
2023-04-01T10:21:08.175Z,72.58
2023-04-01T10:24:29.194Z,73.34
2023-04-01T10:27:42.633Z,73.37
2023-04-01T10:31:33.570Z,73.83
2023-04-01T10:35:05.011Z,74.45
2023-04-01T10:38:38.308Z,74.28
2023-04-01T10:42:30.461Z,74.31
2023-04-01T10:46:22.952Z,74.39
2023-04-01T10:49:42.483Z,74.72
2023-04-01T10:53:12.102Z,74.92
2023-04-01T10:56:41.726Z,74.74
2023-04-01T11:00:30.172Z,74.76
2023-04-01T11:04:27.344Z,74.56
2023-04-01T11:08:31.789Z,73.57
2023-04-01T11:11:54.382Z,73.48
2023-04-01T11:15:10.511Z,73.58
2023-04-01T11:18:36.557Z,73.58
2023-04-01T11:21:50.837Z,73.54
2023-04-01T11:25:18.566Z,73.91
2023-04-01T11:28:49.633Z,74.00
2023-04-01T11:32:06.037Z,74.14
2023-04-01T11:35:25.829Z,74.16
2023-04-01T11:38:52.061Z,73.85
2023-04-01T11:42:55.205Z,74.12
2023-04-01T11:46:49.377Z,74.40
2023-04-01T11:50:12.336Z,73.65
2023-04-01T11:53:28.384Z,73.47
2023-04-01T11:56:43.126Z,73.47
2023-04-01T12:00:12.303Z,72.78
2023-04-01T12:03:53.288Z,72.54
2023-04-01T12:07:23.110Z,72.64
2023-04-01T12:10:41.706Z,72.94
2023-04-01T12:14:09.736Z,72.67
2023-04-01T12:17:50.180Z,72.29
2023-04-01T12:21:01.764Z,72.83
2023-04-01T12:24:36.933Z,72.51
2023-04-01T12:27:49.715Z,72.35
2023-04-01T12:31:02.483Z,72.44
2023-04-01T12:34:25.092Z,72.70
2023-04-01T12:37:32.118Z,73.35
2023-04-01T12:40:55.693Z,71.15
2023-04-01T12:44:18.244Z,70.91
2023-04-01T12:48:00.560Z,70.91
2023-04-01T12:51:07.453Z,71.47
2023-04-01T12:54:33.516Z,71.98
2023-04-01T12:58:02.263Z,71.01
2023-04-01T13:01:37.331Z,71.36
2023-04-01T13:04:51.628Z,70.43
2023-04-01T13:08:09.004Z,70.58
2023-04-01T13:11:26.829Z,70.13
2023-04-01T13:14:41.644Z,69.31
2023-04-01T13:18:20.342Z,69.04
2023-04-01T13:21:30.182Z,68.54
2023-04-01T13:25:11.484Z,68.68
2023-04-01T13:28:27.469Z,68.18
2023-04-01T13:31:48.254Z,68.62
2023-04-01T13:35:23.241Z,68.19
2023-04-01T13:39:06.557Z,67.80
2023-04-01T13:42:28.813Z,67.98
2023-04-01T13:45:38.865Z,67.17
2023-04-01T13:49:26.097Z,66.22
2023-04-01T13:52:49.946Z,65.83
2023-04-01T13:55:56.572Z,65.33
2023-04-01T13:59:22.273Z,64.83
2023-04-01T14:02:40.561Z,63.63
2023-04-01T14:05:56.993Z,63.03
2023-04-01T14:09:29.062Z,63.41
2023-04-01T14:12:32.932Z,63.34
2023-04-01T14:15:55.602Z,63.71
2023-04-01T14:19:41.976Z,64.06
2023-04-01T14:23:10.761Z,64.32
2023-04-01T14:26:23.321Z,64.57
2023-04-01T14:29:58.437Z,65.38
2023-04-01T14:33:26.184Z,66.00
2023-04-01T14:36:44.417Z,66.82
2023-04-01T14:40:01.273Z,67.60
2023-04-01T14:43:16.353Z,68.54
2023-04-01T14:46:58.253Z,69.17
2023-04-01T14:50:22.758Z,69.96
2023-04-01T14:53:26.884Z,70.78
2023-04-01T14:56:50.571Z,71.74
2023-04-01T15:00:02.277Z,72.36
2023-04-01T15:03:22.873Z,72.37
2023-04-01T15:07:03.983Z,72.87
2023-04-01T15:10:51.219Z,73.66
2023-04-01T15:14:04.624Z,74.04
2023-04-01T15:17:43.379Z,74.29
2023-04-01T15:20:59.408Z,74.48
2023-04-01T15:24:34.578Z,74.93
2023-04-01T15:27:50.486Z,75.40
2023-04-01T15:31:09.833Z,75.59
2023-04-01T15:34:42.740Z,75.26
2023-04-01T15:37:57.412Z,74.93
2023-04-01T15:41:08.923Z,74.96
2023-04-01T15:44:31.542Z,74.85
2023-04-01T15:47:43.854Z,74.92
2023-04-01T15:50:56.572Z,74.64
2023-04-01T15:54:42.682Z,75.09
2023-04-01T15:58:26.531Z,75.44
2023-04-01T16:01:43.606Z,75.85
2023-04-01T16:04:59.558Z,75.91
2023-04-01T16:08:33.150Z,76.02
2023-04-01T16:11:52.227Z,74.94
2023-04-01T16:14:59.007Z,74.94
2023-04-01T16:18:42.978Z,74.93
2023-04-01T16:21:54.552Z,74.82
2023-04-01T16:25:17.108Z,74.97
2023-04-01T16:28:30.088Z,75.36
2023-04-01T16:31:47.515Z,75.27
2023-04-01T16:35:12.876Z,75.36
2023-04-01T16:38:30.582Z,75.27
2023-04-01T16:41:49.471Z,75.42
2023-04-01T16:45:00.391Z,75.33
2023-04-01T16:48:18.600Z,75.25
2023-04-01T16:51:24.672Z,75.07
2023-04-01T16:54:53.714Z,75.17
2023-04-01T16:58:01.357Z,75.35
2023-04-01T17:01:13.052Z,75.46
2023-04-01T17:04:42.426Z,75.64
2023-04-01T17:08:23.108Z,75.64
2023-04-01T17:11:51.141Z,75.78
2023-04-01T17:15:07.245Z,75.89
2023-04-01T17:18:37.074Z,75.91
2023-04-01T17:22:14.355Z,76.09
2023-04-01T17:25:37.000Z,76.30
2023-04-01T17:29:22.492Z,75.79
2023-04-01T17:33:03.907Z,75.21
2023-04-01T17:36:29.914Z,74.93
2023-04-01T17:40:15.326Z,74.95
2023-04-01T17:43:31.251Z,74.93
2023-04-01T17:46:46.568Z,75.07
2023-04-01T17:50:20.080Z,75.04
2023-04-01T17:53:55.433Z,75.13
2023-04-01T17:57:15.739Z,75.25
2023-04-01T18:00:56.792Z,75.68
2023-04-01T18:04:08.551Z,75.33
2023-04-01T18:07:20.505Z,75.28
2023-04-01T18:10:53.203Z,75.14
2023-04-01T18:14:05.314Z,74.98
2023-04-01T18:17:26.876Z,74.98
2023-04-01T18:20:37.584Z,74.93
2023-04-01T18:24:01.769Z,75.04
2023-04-01T18:27:25.172Z,75.17
2023-04-01T18:30:30.830Z,75.14
2023-04-01T18:33:53.476Z,75.42
2023-04-01T18:37:17.971Z,75.80
2023-04-01T18:40:43.908Z,75.88
2023-04-01T18:43:57.869Z,75.83
2023-04-01T18:47:06.527Z,75.84
2023-04-01T18:50:52.576Z,76.10
2023-04-01T18:54:01.395Z,76.14
2023-04-01T18:57:14.328Z,75.98
2023-04-01T19:00:33.836Z,75.87
2023-04-01T19:03:50.457Z,75.97
2023-04-01T19:07:33.052Z,75.72
2023-04-01T19:10:59.072Z,75.76
2023-04-01T19:14:12.086Z,75.58
2023-04-01T19:17:50.656Z,75.97
2023-04-01T19:21:01.082Z,75.87
2023-04-01T19:24:29.241Z,75.87
2023-04-01T19:27:43.629Z,75.76
2023-04-01T19:30:59.649Z,75.98
2023-04-01T19:34:23.279Z,75.99
2023-04-01T19:37:34.952Z,76.12
2023-04-01T19:40:54.272Z,75.91
2023-04-01T19:44:07.095Z,75.71
2023-04-01T19:47:23.988Z,75.84
2023-04-01T19:50:46.565Z,76.09
2023-04-01T19:53:53.560Z,75.96
2023-04-01T19:57:26.727Z,75.86
2023-04-01T20:00:49.920Z,76.22
2023-04-01T20:04:06.745Z,76.23
2023-04-01T20:07:41.986Z,76.03
2023-04-01T20:11:08.897Z,76.04
2023-04-01T20:14:27.796Z,76.24
2023-04-01T20:17:42.175Z,75.88
2023-04-01T20:21:07.680Z,76.16
2023-04-01T20:24:14.557Z,76.17
2023-04-01T20:27:23.954Z,75.91
2023-04-01T20:31:03.259Z,76.33
2023-04-01T20:34:33.373Z,76.27
2023-04-01T20:38:05.423Z,76.58
2023-04-01T20:41:26.564Z,76.22
2023-04-01T20:44:53.440Z,76.32
2023-04-01T20:48:10.334Z,76.45
2023-04-01T20:51:24.341Z,76.25
2023-04-01T20:55:10.595Z,76.53
2023-04-01T20:58:21.552Z,76.26
2023-04-01T21:01:50.705Z,76.73
2023-04-01T21:05:32.659Z,76.72
2023-04-01T21:08:54.621Z,77.17
2023-04-01T21:12:18.090Z,77.33
2023-04-01T21:15:43.519Z,77.55
2023-04-01T21:19:07.381Z,77.88
2023-04-01T21:22:20.525Z,77.93
2023-04-01T21:25:45.942Z,77.97
2023-04-01T21:28:59.064Z,78.24
2023-04-01T21:32:11.888Z,78.09
2023-04-01T21:35:47.120Z,77.99
2023-04-01T21:39:22.279Z,78.13
2023-04-01T21:42:54.660Z,77.88
2023-04-01T21:45:58.639Z,78.14
2023-04-01T21:49:22.234Z,78.18
2023-04-01T21:52:44.884Z,78.11
2023-04-01T21:56:07.575Z,77.93
2023-04-01T21:59:47.155Z,77.99
2023-04-01T22:03:19.672Z,78.14
2023-04-01T22:06:31.193Z,77.93
2023-04-01T22:10:05.699Z,77.91
2023-04-01T22:13:35.593Z,78.03
2023-04-01T22:17:04.684Z,77.93
2023-04-01T22:20:24.745Z,77.82
2023-04-01T22:23:38.208Z,77.56
2023-04-01T22:26:46.904Z,77.52
2023-04-01T22:30:00.626Z,77.40
2023-04-01T22:33:39.831Z,77.37
2023-04-01T22:36:50.069Z,77.22
2023-04-01T22:40:19.454Z,77.15
2023-04-01T22:43:39.026Z,76.70
2023-04-01T22:46:50.228Z,77.06
2023-04-01T22:50:19.736Z,77.20
2023-04-01T22:53:36.332Z,76.71
2023-04-01T22:56:47.561Z,76.93
2023-04-01T22:59:58.912Z,76.69
2023-04-01T23:03:19.931Z,76.76
2023-04-01T23:06:38.378Z,76.81
2023-04-01T23:09:42.316Z,76.58
2023-04-01T23:12:48.449Z,76.56
2023-04-01T23:15:57.601Z,76.75
2023-04-01T23:19:17.482Z,76.71
2023-04-01T23:22:37.346Z,76.75
2023-04-01T23:25:51.211Z,76.48
2023-04-01T23:28:57.823Z,76.40
2023-04-01T23:32:05.668Z,76.25
2023-04-01T23:35:18.052Z,76.46
2023-04-01T23:38:25.525Z,76.30
2023-04-01T23:41:33.244Z,76.05
2023-04-01T23:44:37.929Z,75.90
2023-04-01T23:47:42.337Z,75.62
2023-04-01T23:50:46.789Z,75.31
2023-04-01T23:54:02.535Z,75.75
2023-04-01T23:57:14.438Z,75.49
